Time;durP1;ratioP1;P1;durP2;ratioP2;P2;SDS_P1;SDS_P2;PMS_P1;PMS_P2;Temp;Humidity;BMP_temperature;BMP_pressure;BME280_temperature;BME280_humidity;BME280_pressure;Samples;Min_cycle;Max_cycle;Signal;HPM_P1;HPM_P2
2022/05/24 00:00:26;;;;;;;5.18;2.53;;;20.00;99.90;;;;;;5029764;28;20121;-50
2022/05/24 00:02:52;;;;;;;7.72;2.95;;;20.10;99.90;;;;;;5014894;28;20021;-54
2022/05/24 00:05:24;;;;;;;4.60;2.85;;;20.20;99.90;;;;;;5015055;28;20105;-53
2022/05/24 00:07:50;;;;;;;3.65;2.55;;;20.20;99.90;;;;;;5014992;28;20038;-51
2022/05/24 00:10:19;;;;;;;6.45;3.63;;;20.20;99.90;;;;;;5014795;28;20068;-53
2022/05/24 00:12:45;;;;;;;6.18;3.42;;;20.10;99.90;;;;;;5014664;28;20041;-56
2022/05/24 00:15:23;;;;;;;4.35;3.00;;;20.00;99.90;;;;;;5029693;28;20474;-50
2022/05/24 00:18:16;;;;;;;5.18;3.20;;;20.00;99.90;;;;;;5014727;28;20059;-52
2022/05/24 00:20:46;;;;;;;5.30;2.83;;;19.90;99.90;;;;;;5014646;28;20050;-49
2022/05/24 00:23:13;;;;;;;4.93;3.00;;;19.80;99.90;;;;;;5014442;28;20026;-54
2022/05/24 00:25:42;;;;;;;6.03;3.22;;;19.80;99.90;;;;;;5014728;28;20037;-51
2022/05/24 00:28:08;;;;;;;6.60;3.25;;;19.70;99.90;;;;;;5013727;28;20481;-52
2022/05/24 00:30:35;;;;;;;6.65;3.17;;;19.70;99.90;;;;;;5014616;28;20488;-51
2022/05/24 00:33:00;;;;;;;6.82;2.72;;;19.70;99.90;;;;;;5014278;28;20109;-54
2022/05/24 00:35:26;;;;;;;6.53;2.95;;;19.70;99.90;;;;;;5014757;28;20054;-52
2022/05/24 00:37:52;;;;;;;5.35;2.72;;;19.70;99.90;;;;;;5014308;28;20034;-53
2022/05/24 00:41:08;;;;;;;7.05;2.40;;;19.40;99.90;;;;;;5014394;28;20045;-52
2022/05/24 00:43:44;;;;;;;5.00;2.40;;;19.40;99.90;;;;;;5011484;28;20041;-52
2022/05/24 00:46:17;;;;;;;4.38;2.40;;;19.20;99.90;;;;;;5012006;28;20033;-53
2022/05/24 00:49:15;;;;;;;4.15;2.22;;;19.30;99.90;;;;;;5012108;28;20120;-52
2022/05/24 00:51:54;;;;;;;4.65;2.05;;;19.20;99.90;;;;;;4995394;28;20121;-51
2022/05/24 00:54:20;;;;;;;5.03;2.45;;;19.20;99.90;;;;;;5012161;28;20035;-53
2022/05/24 00:57:23;;;;;;;6.97;2.22;;;19.20;99.90;;;;;;4995605;28;20412;-53
2022/05/24 01:00:05;;;;;;;4.03;2.20;;;19.20;99.90;;;;;;5011873;28;20034;-52
2022/05/24 01:02:31;;;;;;;3.30;2.00;;;19.20;99.90;;;;;;4979362;28;20042;-52
2022/05/24 01:04:58;;;;;;;3.40;1.90;;;19.20;99.90;;;;;;5011902;28;20444;-55
2022/05/24 01:07:24;;;;;;;4.25;2.40;;;19.20;99.90;;;;;;5011885;28;20046;-53
2022/05/24 01:09:58;;;;;;;5.18;2.00;;;19.20;99.90;;;;;;4995550;28;20100;-52
2022/05/24 01:12:37;;;;;;;11.00;2.90;;;19.30;99.90;;;;;;5011740;28;20029;-53
2022/05/24 01:15:05;;;;;;;4.82;2.08;;;19.00;99.90;;;;;;5013501;28;20042;-52
2022/05/24 01:17:32;;;;;;;4.68;2.47;;;18.90;99.90;;;;;;5012183;28;20057;-52
2022/05/24 01:19:58;;;;;;;4.93;2.10;;;19.00;99.90;;;;;;5013678;28;20517;-49
2022/05/24 01:22:39;;;;;;;3.38;1.90;;;18.90;99.90;;;;;;5013870;28;20029;-51
2022/05/24 01:25:42;;;;;;;4.90;1.88;;;19.00;99.90;;;;;;5013471;28;20061;-53
2022/05/24 01:28:31;;;;;;;4.82;2.10;;;19.10;99.90;;;;;;5013805;28;20026;-52
2022/05/24 01:30:57;;;;;;;4.88;2.20;;;18.90;99.90;;;;;;5013695;28;20030;-50
2022/05/24 01:36:12;;;;;;;3.10;2.00;;;18.90;99.90;;;;;;5013794;28;20130;-52
2022/05/24 01:38:48;;;;;;;5.28;2.38;;;18.80;99.90;;;;;;5013793;28;20533;-51
2022/05/24 01:41:21;;;;;;;6.53;3.00;;;18.80;99.90;;;;;;5028195;28;20443;-54
2022/05/24 01:43:50;;;;;;;5.45;2.80;;;18.80;99.90;;;;;;5013567;28;20034;-51
2022/05/24 01:46:21;;;;;;;4.85;2.75;;;18.90;99.90;;;;;;5028067;28;20034;-49
2022/05/24 01:49:02;;;;;;;5.32;2.55;;;19.00;99.90;;;;;;5025564;28;20042;-52
2022/05/24 01:51:37;;;;;;;3.63;1.95;;;19.10;99.90;;;;;;5028166;28;20038;-52
2022/05/24 01:54:05;;;;;;;2.70;2.10;;;19.00;99.90;;;;;;5013528;28;20018;-54
2022/05/24 01:57:02;;;;;;;3.65;1.92;;;19.00;99.90;;;;;;5017184;28;20029;-49
2022/05/24 01:59:29;;;;;;;4.45;2.30;;;18.80;99.90;;;;;;5015460;28;20100;-51
2022/05/24 02:01:58;;;;;;;7.10;3.13;;;18.60;99.90;;;;;;5017065;28;20037;-49
2022/05/24 02:04:25;;;;;;;4.68;3.53;;;18.50;99.90;;;;;;5017082;28;20025;-50
2022/05/24 02:07:09;;;;;;;6.05;3.60;;;18.20;99.90;;;;;;5017338;28;20030;-51
2022/05/24 02:09:38;;;;;;;4.47;3.60;;;18.00;99.90;;;;;;5017035;28;20453;-49
2022/05/24 02:12:13;;;;;;;4.25;2.85;;;17.90;99.90;;;;;;5017216;28;20022;-49
2022/05/24 02:14:51;;;;;;;4.93;2.88;;;17.90;99.90;;;;;;5012184;28;20402;-55
2022/05/24 02:17:27;;;;;;;4.18;2.60;;;17.60;99.90;;;;;;5015007;28;20429;-54
2022/05/24 02:19:56;;;;;;;5.25;2.70;;;17.80;99.90;;;;;;5014921;28;20038;-49
2022/05/24 02:22:27;;;;;;;6.32;2.67;;;18.00;99.90;;;;;;5014704;28;20046;-48
2022/05/24 02:24:57;;;;;;;5.53;2.97;;;18.10;99.90;;;;;;5015007;28;20068;-50
2022/05/24 02:27:22;;;;;;;3.85;2.63;;;18.40;99.90;;;;;;4998337;28;20030;-50
2022/05/24 02:29:48;;;;;;;5.88;3.47;;;18.70;99.90;;;;;;5014867;28;20480;-49
2022/05/24 02:32:14;;;;;;;6.35;3.28;;;18.90;99.90;;;;;;5014717;28;20109;-55
2022/05/24 02:34:40;;;;;;;6.78;2.97;;;19.00;99.90;;;;;;5014622;28;20550;-51
2022/05/24 02:37:05;;;;;;;4.70;2.75;;;19.10;99.90;;;;;;5014530;28;20489;-53
2022/05/24 02:41:28;;;;;;;5.28;2.88;;;19.00;99.90;;;;;;5014347;28;20044;-51
2022/05/24 02:42:17;;;;;;;5.65;2.70;;;19.10;99.90;;;;;;5014356;28;20041;-51
2022/05/24 02:44:43;;;;;;;4.43;3.05;;;19.10;99.90;;;;;;5014578;28;20124;-55
2022/05/24 02:47:08;;;;;;;6.90;2.97;;;18.90;99.90;;;;;;5014231;28;20137;-50
2022/05/24 02:49:34;;;;;;;5.53;2.80;;;18.90;99.90;;;;;;5014407;28;20040;-50
2022/05/24 02:52:00;;;;;;;4.85;2.72;;;18.80;99.90;;;;;;5014296;28;20543;-51
2022/05/24 02:54:25;;;;;;;3.58;2.72;;;18.70;99.90;;;;;;5014298;28;20083;-50
2022/05/24 02:56:51;;;;;;;3.25;2.40;;;18.70;99.90;;;;;;5014336;28;20029;-52
2022/05/24 02:59:17;;;;;;;3.33;2.42;;;18.70;99.90;;;;;;5014472;28;20065;-53
2022/05/24 03:01:43;;;;;;;6.25;2.90;;;18.70;99.90;;;;;;5030752;28;20046;-50
2022/05/24 03:04:08;;;;;;;3.53;2.50;;;18.60;99.90;;;;;;5030760;28;20044;-55
2022/05/24 03:09:33;;;;;;;6.57;2.28;;;18.50;99.90;;;;;;5015162;28;20072;-50
2022/05/24 03:09:35;;;;;;;4.18;2.60;;;18.60;99.90;;;;;;5016127;28;20041;-50
2022/05/24 03:14:52;;;;;;;3.25;2.63;;;18.60;99.90;;;;;;5014320;28;20270;-55
2022/05/24 03:17:18;;;;;;;4.70;2.08;;;18.30;99.90;;;;;;5014004;28;20038;-52
2022/05/24 03:19:45;;;;;;;3.38;2.30;;;18.20;99.90;;;;;;5013777;28;20108;-53
2022/05/24 03:22:13;;;;;;;10.50;3.53;;;18.00;99.90;;;;;;5013570;28;20466;-48
2022/05/24 03:24:39;;;;;;;8.35;3.17;;;18.00;99.90;;;;;;5013515;28;20050;-53
2022/05/24 03:27:11;;;;;;;6.07;2.50;;;18.20;99.90;;;;;;5013728;28;20050;-50
2022/05/24 03:29:38;;;;;;;13.65;4.50;;;18.00;99.90;;;;;;5013676;28;20502;-50
2022/05/24 03:32:06;;;;;;;5.90;2.97;;;18.30;99.90;;;;;;5013660;28;20077;-51
2022/05/24 03:34:31;;;;;;;4.38;2.92;;;18.50;99.90;;;;;;5013627;28;20038;-52
2022/05/24 03:36:57;;;;;;;7.63;2.97;;;18.50;99.90;;;;;;5013329;28;20482;-51
2022/05/24 03:39:23;;;;;;;5.93;3.00;;;18.40;99.90;;;;;;5013370;28;20022;-53
2022/05/24 03:41:49;;;;;;;5.25;2.88;;;18.40;99.90;;;;;;5013591;28;20045;-51
2022/05/24 03:44:15;;;;;;;5.70;3.13;;;18.50;99.90;;;;;;5015488;28;20038;-51
2022/05/24 03:46:42;;;;;;;5.78;3.20;;;18.70;99.90;;;;;;5015253;28;20026;-50
2022/05/24 03:49:08;;;;;;;6.72;3.15;;;18.70;99.90;;;;;;5015492;28;20116;-53
2022/05/24 03:51:34;;;;;;;6.55;3.20;;;18.80;99.90;;;;;;5015347;28;20113;-52
2022/05/24 03:54:00;;;;;;;6.38;3.63;;;18.80;99.90;;;;;;5015110;28;20057;-48
2022/05/24 03:56:26;;;;;;;8.95;4.05;;;18.80;99.90;;;;;;5015299;28;20041;-52
2022/05/24 03:58:52;;;;;;;4.88;2.95;;;18.80;99.90;;;;;;5015085;28;20029;-50
2022/05/24 04:01:18;;;;;;;6.80;3.40;;;18.90;99.90;;;;;;5013714;28;20132;-53
2022/05/24 04:03:44;;;;;;;4.18;3.10;;;19.00;99.90;;;;;;5021471;28;20113;-53
2022/05/24 04:06:10;;;;;;;6.20;3.10;;;19.10;99.90;;;;;;5030933;28;20080;-52
2022/05/24 04:08:36;;;;;;;5.93;4.00;;;18.70;99.90;;;;;;5033162;28;20026;-52
2022/05/24 04:11:04;;;;;;;6.05;3.47;;;18.70;99.90;;;;;;5020681;28;20087;-53
2022/05/24 04:13:31;;;;;;;5.95;3.33;;;18.60;99.90;;;;;;5034549;28;20026;-50
2022/05/24 04:15:57;;;;;;;6.45;3.72;;;18.30;99.90;;;;;;5031788;28;20125;-51
2022/05/24 04:18:23;;;;;;;7.80;3.63;;;18.50;99.90;;;;;;5034334;28;20075;-50
2022/05/24 04:20:49;;;;;;;7.78;3.58;;;18.60;99.90;;;;;;5034338;28;20112;-52
2022/05/24 04:23:17;;;;;;;6.85;3.90;;;18.60;99.90;;;;;;5034218;28;20076;-52
2022/05/24 04:25:43;;;;;;;8.32;3.65;;;18.70;99.90;;;;;;5033312;28;20052;-52
2022/05/24 04:28:09;;;;;;;8.77;3.85;;;18.80;99.90;;;;;;5033791;28;20029;-50
2022/05/24 04:30:35;;;;;;;5.85;3.80;;;18.90;99.90;;;;;;5032203;28;20026;-51
2022/05/24 04:33:00;;;;;;;5.38;3.53;;;19.20;99.90;;;;;;5031924;28;20470;-49
2022/05/24 04:35:27;;;;;;;6.20;3.85;;;19.40;99.90;;;;;;4982623;28;20053;-54
2022/05/24 04:37:53;;;;;;;7.93;3.85;;;19.40;99.90;;;;;;5033816;28;20466;-51
2022/05/24 04:42:18;;;;;;;10.73;4.57;;;19.70;99.90;;;;;;5049040;28;20103;-49
2022/05/24 04:43:05;;;;;;;7.18;4.30;;;19.90;99.90;;;;;;5027718;28;20083;-53
2022/05/24 04:45:31;;;;;;;9.70;4.68;;;20.10;99.90;;;;;;5026153;28;20034;-50
2022/05/24 04:47:56;;;;;;;8.52;3.88;;;20.20;99.90;;;;;;5024959;28;20025;-53
2022/05/24 04:50:22;;;;;;;9.57;4.35;;;20.30;99.90;;;;;;5033920;28;20128;-50
2022/05/24 04:52:48;;;;;;;8.55;4.43;;;20.20;99.90;;;;;;5033984;28;20033;-52
2022/05/24 04:55:14;;;;;;;7.47;4.57;;;19.90;99.90;;;;;;5033974;28;20083;-50
2022/05/24 04:57:40;;;;;;;8.25;5.10;;;19.90;99.90;;;;;;5033620;28;20359;-55
2022/05/24 05:00:12;;;;;;;7.05;4.32;;;20.00;99.90;;;;;;5033879;28;20032;-53
2022/05/24 05:02:38;;;;;;;8.75;4.40;;;20.00;99.90;;;;;;5033579;28;20490;-50
2022/05/24 05:05:04;;;;;;;7.88;4.43;;;20.00;99.90;;;;;;5048713;28;20029;-53
2022/05/24 05:07:31;;;;;;;7.00;4.53;;;20.00;99.90;;;;;;5033638;28;20032;-52
2022/05/24 05:09:56;;;;;;;9.60;4.47;;;20.30;99.90;;;;;;5033688;28;20025;-55
2022/05/24 05:12:25;;;;;;;8.82;4.15;;;20.40;99.90;;;;;;5033541;28;20052;-53
2022/05/24 05:14:51;;;;;;;4.82;3.95;;;20.40;99.90;;;;;;5027555;28;20037;-48
2022/05/24 05:17:18;;;;;;;9.43;4.20;;;20.10;99.90;;;;;;5015908;28;20034;-50
2022/05/24 05:19:45;;;;;;;4.40;3.40;;;20.00;99.90;;;;;;5017515;28;20041;-53
2022/05/24 05:22:11;;;;;;;6.63;3.90;;;20.20;99.90;;;;;;5032089;28;20128;-54
2022/05/24 05:24:37;;;;;;;5.63;3.92;;;20.10;99.90;;;;;;5033196;28;20063;-51
2022/05/24 05:27:04;;;;;;;13.20;4.32;;;20.40;99.90;;;;;;5030803;28;20037;-49
2022/05/24 05:32:19;;;;;;;8.32;3.63;;;;;;;;;;5023500;28;20044;-54
2022/05/24 05:34:45;;;;;;;9.73;4.95;;;21.20;99.90;;;;;;5024752;28;20026;-50
2022/05/24 05:37:11;;;;;;;7.32;3.65;;;21.10;99.90;;;;;;5030146;28;20114;-53
2022/05/24 05:39:37;;;;;;;6.43;3.92;;;21.30;99.90;;;;;;5029980;28;20041;-50
2022/05/24 05:42:04;;;;;;;6.90;3.90;;;21.20;99.90;;;;;;5016437;28;20053;-52
2022/05/24 05:44:30;;;;;;;7.55;3.90;;;21.30;99.90;;;;;;5021521;28;20046;-54
2022/05/24 05:46:56;;;;;;;6.53;3.38;;;21.30;99.90;;;;;;5025465;28;20021;-53
2022/05/24 05:49:22;;;;;;;7.35;3.92;;;21.10;99.90;;;;;;5033111;28;20037;-54
2022/05/24 05:51:48;;;;;;;8.52;3.83;;;21.30;99.90;;;;;;5031148;28;20550;-54
2022/05/24 05:54:14;;;;;;;6.18;3.45;;;21.30;99.90;;;;;;5033102;28;20065;-54
2022/05/24 05:56:41;;;;;;;9.57;4.68;;;21.50;99.90;;;;;;5048125;28;20060;-55
2022/05/24 05:59:07;;;;;;;6.40;3.30;;;21.60;99.90;;;;;;5048034;28;20080;-52
2022/05/24 06:01:33;;;;;;;9.10;5.15;;;21.90;99.90;;;;;;5030401;28;20040;-54
2022/05/24 06:03:59;;;;;;;8.23;4.65;;;;;;;;;;5033108;28;20033;-56
2022/05/24 06:06:29;;;;;;;7.40;3.80;;;22.80;99.90;;;;;;5033041;28;20033;-51
2022/05/24 06:08:55;;;;;;;5.07;3.55;;;;;;;;;;5027145;28;20109;-52
2022/05/24 06:11:23;;;;;;;7.65;3.70;;;23.50;99.90;;;;;;5021644;28;20053;-54
2022/05/24 06:13:49;;;;;;;6.68;3.80;;;;;;;;;;5020587;28;20049;-52
2022/05/24 06:16:16;;;;;;;8.50;3.90;;;;;;;;;;5023420;28;20025;-55
2022/05/24 06:18:42;;;;;;;10.50;4.43;;;;;;;;;;5020623;28;20425;-50
2022/05/24 06:21:10;;;;;;;7.50;4.78;;;24.40;99.90;;;;;;5027160;28;20030;-59
2022/05/24 06:23:36;;;;;;;5.38;4.00;;;;;;;;;;5023867;28;20147;-53
2022/05/24 06:26:02;;;;;;;12.98;4.70;;;;;;;;;;5023278;28;20484;-51
2022/05/24 06:28:28;;;;;;;9.05;4.70;;;;;;;;;;5023183;28;21068;-52
2022/05/24 06:30:55;;;;;;;7.05;4.40;;;24.60;99.90;;;;;;5025577;28;20044;-55
2022/05/24 06:33:21;;;;;;;7.55;4.45;;;;;;;;;;5021434;28;20030;-55
2022/05/24 06:35:47;;;;;;;7.30;4.15;;;;;;;;;;5022635;28;20481;-52
2022/05/24 06:38:13;;;;;;;7.57;3.78;;;;;;;;;;5023077;28;20442;-51
2022/05/24 06:40:40;;;;;;;10.77;4.65;;;;;;;;;;5013555;28;20141;-53
2022/05/24 06:43:06;;;;;;;9.55;5.07;;;25.70;99.90;;;;;;5016668;28;20046;-53
2022/05/24 06:45:32;;;;;;;6.93;4.18;;;;;;;;;;5014770;28;20045;-57
2022/05/24 06:47:58;;;;;;;6.65;4.45;;;;;;;;;;5029366;28;20041;-53
2022/05/24 06:50:24;;;;;;;7.63;4.15;;;26.40;99.90;;;;;;5036109;28;20116;-49
2022/05/24 06:52:54;;;;;;;19.63;4.93;;;;;;;;;;5050996;28;20122;-55
2022/05/24 06:55:21;;;;;;;6.97;3.60;;;26.70;99.90;;;;;;5036551;28;20061;-51
2022/05/24 06:57:48;;;;;;;8.95;3.78;;;26.80;99.90;;;;;;5051054;28;20088;-53
2022/05/24 07:03:00;;;;;;;6.13;3.95;;;;;;;;;;5034633;28;20044;-57
2022/05/24 07:05:26;;;;;;;7.35;3.85;;;;;;;;;;5050600;28;20137;-53
2022/05/24 07:07:52;;;;;;;8.40;4.22;;;27.70;99.90;;;;;;5028122;28;20041;-57
2022/05/24 07:10:18;;;;;;;5.75;3.80;;;;;;;;;;5031405;28;20060;-53
2022/05/24 07:12:45;;;;;;;6.43;3.85;;;27.90;99.90;;;;;;5029323;28;20161;-55
2022/05/24 07:15:11;;;;;;;5.90;3.83;;;;;;;;;;5031006;28;20096;-54
2022/05/24 07:17:37;;;;;;;10.65;4.80;;;28.60;99.90;;;;;;5030230;28;20037;-54
2022/05/24 07:20:04;;;;;;;5.28;3.55;;;28.70;99.90;;;;;;5035677;28;20108;-52
2022/05/24 07:22:29;;;;;;;6.53;4.13;;;28.50;99.90;;;;;;5033724;28;20065;-55
2022/05/24 07:24:56;;;;;;;7.45;4.40;;;;;;;;;;5035390;28;20505;-55
2022/05/24 07:27:22;;;;;;;6.53;4.32;;;29.10;99.90;;;;;;5035795;28;20034;-53
2022/05/24 07:29:50;;;;;;;12.57;6.35;;;29.30;99.90;;;;;;5035451;28;20055;-55
2022/05/24 07:32:16;;;;;;;10.35;5.68;;;;;;;;;;5050198;28;20132;-55
2022/05/24 07:34:42;;;;;;;11.43;5.30;;;;;;;;;;5035384;28;20036;-53
2022/05/24 07:37:12;;;;;;;6.03;4.20;;;;;;;;;;5029398;28;20043;-51
2022/05/24 07:39:38;;;;;;;7.40;4.20;;;;;;;;;;5025794;28;20049;-52
2022/05/24 07:47:34;;;;;;;8.80;3.85;;;;;;;;;;5025479;28;20037;-51
2022/05/24 07:50:00;;;;;;;5.55;4.20;;;;;;;;;;5025843;28;20024;-53
2022/05/24 07:52:26;;;;;;;6.65;4.30;;;;;;;;;;5022193;28;20509;-51
2022/05/24 07:54:52;;;;;;;10.05;4.68;;;;;;;;;;5026013;28;20031;-55
2022/05/24 07:57:19;;;;;;;8.25;4.72;;;;;;;;;;5026950;28;20025;-54
2022/05/24 07:59:47;;;;;;;7.47;4.93;;;;;;;;;;5026312;28;20049;-50
2022/05/24 08:02:14;;;;;;;7.47;4.57;;;;;;;;;;5020254;28;20446;-54
2022/05/24 08:04:40;;;;;;;6.47;4.78;;;;;;;;;;5028871;28;20044;-50
2022/05/24 08:07:06;;;;;;;21.15;7.18;;;;;;;;;;5030508;28;20496;-50
2022/05/24 08:09:33;;;;;;;10.25;4.53;;;;;;;;;;5032849;28;20557;-53
2022/05/24 08:11:59;;;;;;;7.45;4.55;;;;;;;;;;5034448;28;20081;-51
2022/05/24 08:14:25;;;;;;;9.80;4.70;;;31.30;99.90;;;;;;5034840;28;20505;-53
2022/05/24 08:16:51;;;;;;;8.70;4.10;;;31.40;97.90;;;;;;5034578;28;20033;-51
2022/05/24 08:19:16;;;;;;;10.73;4.18;;;31.50;97.00;;;;;;5034657;28;20037;-51
2022/05/24 08:21:42;;;;;;;14.63;5.13;;;31.90;96.90;;;;;;5034612;28;20401;-53
2022/05/24 08:24:08;;;;;;;11.05;4.82;;;32.20;96.60;;;;;;5034501;28;20045;-52
2022/05/24 08:26:36;;;;;;;10.30;4.13;;;;;;;;;;5034444;28;20034;-52
2022/05/24 08:29:03;;;;;;;13.40;4.50;;;32.40;95.60;;;;;;5034343;28;20108;-52
2022/05/24 08:31:29;;;;;;;8.00;4.85;;;;;;;;;;5049486;28;20044;-51
2022/05/24 08:33:55;;;;;;;10.23;4.43;;;32.50;95.20;;;;;;5032421;28;20037;-53
2022/05/24 08:36:21;;;;;;;10.13;4.85;;;32.60;94.60;;;;;;5034356;28;20535;-50
2022/05/24 08:38:47;;;;;;;15.75;5.38;;;32.30;95.20;;;;;;5034297;28;20042;-52
2022/05/24 08:41:54;;;;;;;9.38;4.68;;;32.90;95.60;;;;;;5034269;28;20064;-51
2022/05/24 08:50:21;;;;;;;11.23;4.85;;;;;;;;;;5034002;28;20044;-50
2022/05/24 08:53:00;;;;;;;11.30;5.35;;;32.20;94.70;;;;;;5033902;28;20032;-51
2022/05/24 08:55:27;;;;;;;9.13;4.88;;;;;;;;;;5034016;28;20033;-52
2022/05/24 08:57:56;;;;;;;8.50;4.70;;;33.20;99.90;;;;;;5033867;28;20034;-51
2022/05/24 09:00:24;;;;;;;13.98;4.90;;;;;;;;;;5033659;28;20033;-52
2022/05/24 09:02:50;;;;;;;9.77;4.82;;;;;;;;;;5033705;28;20034;-53
2022/05/24 09:05:21;;;;;;;11.02;4.95;;;;;;;;;;5032925;28;20064;-54
2022/05/24 09:07:58;;;;;;;10.20;5.40;;;;;;;;;;5048769;28;20067;-50
2022/05/24 09:10:28;;;;;;;8.88;5.43;;;;;;;;;;5033732;28;20033;-53
2022/05/24 09:13:05;;;;;;;9.60;5.00;;;33.60;92.40;;;;;;5033489;28;20128;-54
2022/05/24 09:15:31;;;;;;;11.13;5.40;;;;;;;;;;5033954;28;20072;-52
2022/05/24 09:18:06;;;;;;;9.88;5.15;;;34.00;92.20;;;;;;5033270;28;20063;-54
2022/05/24 09:20:40;;;;;;;9.93;5.38;;;34.10;92.50;;;;;;5028418;28;20049;-52
2022/05/24 09:23:10;;;;;;;7.75;5.28;;;;;;;;;;5011844;28;20045;-53
2022/05/24 09:25:37;;;;;;;11.20;5.53;;;;;;;;;;5011631;28;20057;-52
2022/05/24 09:28:03;;;;;;;11.82;5.28;;;35.00;91.70;;;;;;5011925;28;20056;-50
2022/05/24 09:30:28;;;;;;;7.07;4.90;;;35.10;91.80;;;;;;5011671;28;20528;-50
2022/05/24 09:33:22;;;;;;;13.43;5.18;;;34.90;91.20;;;;;;5010849;28;20053;-54
2022/05/24 09:35:51;;;;;;;7.28;5.13;;;35.10;91.10;;;;;;5026644;28;20096;-53
2022/05/24 09:38:22;;;;;;;9.02;4.82;;;35.30;91.20;;;;;;5030574;28;20054;-57
2022/05/24 09:40:54;;;;;;;6.22;4.43;;;34.60;91.10;;;;;;5030432;28;20041;-52
2022/05/24 09:43:26;;;;;;;10.48;5.35;;;33.70;91.10;;;;;;5025591;28;20048;-56
2022/05/24 09:45:58;;;;;;;11.05;5.07;;;33.80;91.20;;;;;;5030242;28;20025;-57
2022/05/24 09:48:30;;;;;;;10.90;4.88;;;33.80;91.70;;;;;;5012860;28;20108;-56
2022/05/24 09:50:57;;;;;;;14.25;5.28;;;34.50;91.50;;;;;;5028580;28;20030;-53
2022/05/24 09:53:26;;;;;;;11.27;5.28;;;35.30;93.20;;;;;;5031544;28;20144;-54
2022/05/24 09:55:59;;;;;;;10.15;5.65;;;35.50;91.00;;;;;;5033002;28;20040;-54
2022/05/24 09:58:30;;;;;;;12.25;5.13;;;35.30;90.30;;;;;;5033107;28;20095;-56
2022/05/24 10:01:01;;;;;;;8.48;4.45;;;35.70;90.30;;;;;;5028558;28;20100;-55
2022/05/24 10:03:46;;;;;;;12.70;5.65;;;35.50;90.50;;;;;;5016818;28;20034;-51
2022/05/24 10:06:21;;;;;;;14.25;5.00;;;35.40;89.60;;;;;;5031794;28;20103;-58
2022/05/24 10:08:51;;;;;;;7.57;4.45;;;35.20;89.50;;;;;;5047811;28;20049;-55
2022/05/24 10:11:44;;;;;;;7.53;4.82;;;35.00;89.70;;;;;;5033022;28;20033;-58
2022/05/24 10:14:30;;;;;;;10.50;4.97;;;35.10;89.00;;;;;;5032740;28;20393;-52
2022/05/24 10:17:19;;;;;;;8.93;4.82;;;36.00;90.00;;;;;;5035128;28;20128;-57
2022/05/24 10:20:14;;;;;;;9.30;4.85;;;36.30;89.20;;;;;;5036562;28;20064;-58
2022/05/24 10:23:03;;;;;;;8.77;4.75;;;36.70;88.40;;;;;;5017008;28;20398;-54
2022/05/24 10:25:42;;;;;;;8.85;4.55;;;37.10;87.40;;;;;;5018132;28;20057;-55
2022/05/24 10:28:27;;;;;;;10.45;5.90;;;36.90;87.10;;;;;;5046388;28;20045;-51
2022/05/24 10:31:31;;;;;;;7.40;5.03;;;36.70;86.50;;;;;;5042237;28;20052;-54
2022/05/24 10:40:09;;;;;;;8.25;4.90;;;;;;;;;;5026581;28;20056;-53
2022/05/24 10:42:57;;;;;;;5.68;4.07;;;;;;;;;;5024175;28;20065;-58
2022/05/24 10:45:50;;;;;;;12.63;4.05;;;36.80;99.50;;;;;;5026829;28;20037;-56
2022/05/24 10:48:25;;;;;;;6.18;4.45;;;37.60;96.60;;;;;;5026839;28;20166;-53
2022/05/24 10:51:00;;;;;;;6.38;4.28;;;37.70;84.30;;;;;;5026572;28;20363;-50
2022/05/24 10:53:54;;;;;;;6.70;4.60;;;38.20;84.60;;;;;;5025075;28;20037;-53
2022/05/24 10:56:48;;;;;;;9.15;4.80;;;38.30;85.60;;;;;;5025674;28;20049;-53
2022/05/24 10:59:32;;;;;;;10.02;4.40;;;38.20;82.90;;;;;;5027914;28;20068;-51
2022/05/24 11:02:29;;;;;;;7.45;4.32;;;37.90;84.20;;;;;;5027173;28;20030;-53
2022/05/24 11:05:04;;;;;;;7.43;4.35;;;38.10;84.50;;;;;;5023801;28;20029;-53
2022/05/24 11:07:33;;;;;;;7.50;4.15;;;38.00;82.80;;;;;;5017423;28;20466;-52
2022/05/24 11:10:17;;;;;;;6.90;4.15;;;37.80;81.70;;;;;;5027636;28;20474;-54
2022/05/24 11:12:50;;;;;;;6.18;3.72;;;37.70;82.30;;;;;;5024486;28;20478;-57
2022/05/24 11:15:47;;;;;;;7.18;4.18;;;37.00;81.10;;;;;;5024289;28;20030;-56
2022/05/24 11:18:22;;;;;;;5.18;3.35;;;37.50;82.10;;;;;;5024049;28;20159;-52
2022/05/24 11:21:15;;;;;;;5.15;3.25;;;38.20;80.70;;;;;;5025591;28;20038;-52
2022/05/24 11:24:17;;;;;;;5.00;3.08;;;38.50;81.10;;;;;;5022688;28;20068;-61
2022/05/24 11:26:51;;;;;;;4.78;3.28;;;38.90;78.90;;;;;;5025189;28;20087;-53
2022/05/24 11:29:58;;;;;;;5.45;3.50;;;38.70;77.50;;;;;;5028361;28;20033;-53
2022/05/24 11:32:35;;;;;;;8.27;3.55;;;38.60;77.40;;;;;;4954289;28;20502;-53
2022/05/24 11:35:25;;;;;;;6.75;3.70;;;38.80;78.50;;;;;;4963312;28;20134;-54
2022/05/24 11:37:56;;;;;;;6.95;3.20;;;37.90;78.10;;;;;;4965085;28;20093;-54
2022/05/24 11:40:36;;;;;;;13.20;3.70;;;38.60;78.60;;;;;;4981237;28;20039;-53
2022/05/24 11:43:43;;;;;;;7.07;3.85;;;38.60;78.80;;;;;;4964981;28;20463;-54
2022/05/24 11:46:33;;;;;;;8.63;4.40;;;38.40;78.40;;;;;;4964642;28;20321;-52
2022/05/24 11:49:10;;;;;;;7.60;4.00;;;38.10;79.30;;;;;;4963013;28;20035;-48
2022/05/24 11:51:39;;;;;;;6.60;3.90;;;37.90;79.50;;;;;;4955041;28;20039;-49
2022/05/24 11:54:27;;;;;;;4.32;3.38;;;37.10;78.90;;;;;;4968190;28;20027;-54
2022/05/24 11:57:02;;;;;;;4.55;4.03;;;36.60;80.80;;;;;;4971282;28;20419;-52
2022/05/24 11:59:48;;;;;;;9.82;4.53;;;36.50;81.30;;;;;;4970998;28;20058;-52
2022/05/24 12:02:27;;;;;;;8.00;4.05;;;36.90;81.80;;;;;;4961420;28;20411;-51
2022/05/24 12:08:22;;;;;;;7.97;3.80;;;37.50;79.90;;;;;;4975812;28;20052;-54
2022/05/24 12:10:55;;;;;;;6.68;3.72;;;36.40;80.30;;;;;;5021394;28;20481;-51
2022/05/24 12:13:27;;;;;;;7.88;3.60;;;36.70;81.50;;;;;;5034556;28;20029;-54
2022/05/24 12:15:56;;;;;;;8.73;4.22;;;36.80;80.50;;;;;;5034693;28;20129;-52
2022/05/24 12:18:37;;;;;;;8.30;4.05;;;37.70;82.30;;;;;;5034878;28;20029;-51
2022/05/24 12:21:03;;;;;;;10.35;4.53;;;37.60;80.90;;;;;;5034301;28;20068;-54
2022/05/24 12:23:36;;;;;;;7.75;4.03;;;37.50;80.00;;;;;;5034158;28;20087;-54
2022/05/24 12:26:05;;;;;;;7.85;4.07;;;37.00;80.40;;;;;;5030760;28;20129;-51
2022/05/24 12:28:36;;;;;;;6.80;4.05;;;36.20;80.70;;;;;;5032103;28;20430;-49
2022/05/24 12:31:22;;;;;;;6.40;4.07;;;35.40;81.70;;;;;;5032052;28;20116;-53
2022/05/24 12:33:59;;;;;;;13.20;5.25;;;35.10;82.20;;;;;;5015490;28;20041;-51
2022/05/24 12:36:46;;;;;;;7.85;4.55;;;35.20;82.40;;;;;;4995509;28;20080;-52
2022/05/24 12:39:13;;;;;;;9.57;3.95;;;34.90;82.40;;;;;;5011540;28;20042;-49
2022/05/24 12:41:58;;;;;;;10.32;4.38;;;34.70;83.40;;;;;;4995424;28;20485;-50
2022/05/24 12:44:30;;;;;;;6.15;4.40;;;35.10;83.00;;;;;;5030019;28;20402;-48
2022/05/24 12:47:11;;;;;;;7.93;3.90;;;35.40;83.20;;;;;;5026710;28;20152;-52
2022/05/24 12:49:51;;;;;;;;;;;35.60;83.20;;;;;;5016910;28;20037;-51
2022/05/24 12:52:32;;;;;;;10.77;4.20;;;36.00;82.80;;;;;;5021954;28;19916;-49
2022/05/24 12:55:00;;;;;;;8.75;4.55;;;35.80;82.40;;;;;;5028951;28;20071;-50
2022/05/24 12:57:44;;;;;;;7.07;4.38;;;35.50;83.50;;;;;;5029122;28;20095;-53
2022/05/24 13:00:25;;;;;;;20.98;7.95;;;35.60;83.60;;;;;;5030236;28;20100;-45
2022/05/24 13:02:53;;;;;;;27.67;9.23;;;35.40;83.20;;;;;;5029714;28;20083;-49
2022/05/24 13:05:34;;;;;;;24.50;10.00;;;35.10;83.70;;;;;;5029902;28;20048;-45
2022/05/24 13:08:01;;;;;;;22.65;8.35;;;35.10;83.20;;;;;;5013032;28;20185;-45
2022/05/24 13:10:38;;;;;;;17.25;7.07;;;34.70;83.50;;;;;;5025712;28;20111;-43
2022/05/24 13:13:13;;;;;;;8.13;4.65;;;34.90;84.60;;;;;;5042809;28;20041;-47
2022/05/24 13:15:54;;;;;;;13.10;5.03;;;34.80;83.30;;;;;;5023068;28;20038;-47
2022/05/24 13:18:21;;;;;;;5.50;4.07;;;34.50;83.50;;;;;;5043895;28;20041;-49
2022/05/24 13:20:56;;;;;;;8.57;5.03;;;34.40;95.20;;;;;;5032650;28;20041;-49
2022/05/24 13:23:24;;;;;;;7.65;4.10;;;;;;;;;;5031009;28;20045;-49
2022/05/24 13:25:57;;;;;;;8.07;4.32;;;;;;;;;;5030321;28;20053;-49
2022/05/24 13:28:38;;;;;;;13.20;5.20;;;;;;;;;;5030668;28;20115;-49
2022/05/24 13:33:55;;;;;;;8.18;4.25;;;34.50;86.80;;;;;;5029074;28;20390;-52
2022/05/24 13:36:26;;;;;;;8.02;3.72;;;34.00;85.00;;;;;;5031007;28;20045;-52
2022/05/24 13:39:04;;;;;;;9.48;4.10;;;33.90;84.80;;;;;;5024881;28;20128;-51
2022/05/24 13:41:34;;;;;;;7.35;4.10;;;;;;;;;;5020998;28;20103;-51
2022/05/24 13:44:07;;;;;;;7.18;3.90;;;;;;;;;;5030550;28;20038;-53
2022/05/24 13:46:47;;;;;;;8.32;5.00;;;;;;;;;;5025709;28;20047;-51
2022/05/24 13:49:28;;;;;;;6.53;4.45;;;33.80;98.50;;;;;;5030970;28;20041;-51
2022/05/24 13:51:55;;;;;;;7.65;4.80;;;;;;;;;;5017307;28;20037;-51
2022/05/24 13:54:32;;;;;;;5.93;4.10;;;;;;;;;;5036367;28;20041;-51
2022/05/24 13:56:58;;;;;;;8.15;4.22;;;;;;;;;;5037269;28;20059;-52
2022/05/24 13:59:25;;;;;;;10.95;4.45;;;;;;;;;;5036239;28;20500;-51
2022/05/24 14:01:54;;;;;;;8.13;4.55;;;;;;;;;;5030367;28;20448;-52
2022/05/24 14:04:22;;;;;;;7.03;4.53;;;;;;;;;;5030707;28;20038;-51